createdAt,value
2017-11-15T00:00:23.407Z,95.90
2017-11-15T00:02:53.351Z,95.80
2017-11-15T00:05:22.633Z,95.00
2017-11-15T00:07:51.885Z,95.60
2017-11-15T00:10:21.980Z,96.20
2017-11-15T00:12:51.215Z,96.30
2017-11-15T00:15:20.459Z,96.70
2017-11-15T00:17:49.751Z,96.50
2017-11-15T00:20:20.480Z,96.60
2017-11-15T00:22:50.203Z,96.60
2017-11-15T00:25:19.424Z,96.40
2017-11-15T00:27:48.689Z,96.60
2017-11-15T00:30:17.991Z,96.60
2017-11-15T00:32:48.030Z,96.20
2017-11-15T00:35:17.294Z,96.20
2017-11-15T00:37:46.563Z,96.20
2017-11-15T00:40:15.810Z,96.30
2017-11-15T00:42:45.819Z,96.30
2017-11-15T00:45:15.078Z,96.30
2017-11-15T00:47:44.349Z,96.30
2017-11-15T00:50:14.351Z,96.40
2017-11-15T00:52:43.597Z,96.40
2017-11-15T00:55:12.846Z,96.30
2017-11-15T00:57:42.873Z,96.30
2017-11-15T01:00:12.186Z,96.30
2017-11-15T01:02:41.419Z,96.20
2017-11-15T01:05:10.691Z,96.40
2017-11-15T01:07:40.377Z,96.40
2017-11-15T01:10:10.378Z,96.50
2017-11-15T01:12:40.407Z,96.40
2017-11-15T01:15:10.415Z,96.30
2017-11-15T01:17:39.664Z,96.30
2017-11-15T01:20:08.928Z,95.90
2017-11-15T01:22:38.986Z,94.80
2017-11-15T01:25:08.270Z,94.70
2017-11-15T01:27:37.517Z,94.70
2017-11-15T01:30:07.031Z,94.70
2017-11-15T01:32:36.347Z,94.70
2017-11-15T01:35:05.691Z,94.30
2017-11-15T01:37:34.959Z,94.10
2017-11-15T01:40:04.316Z,94.10
2017-11-15T01:42:33.571Z,94.30
2017-11-15T01:45:02.819Z,94.20
2017-11-15T01:47:32.179Z,94.30
2017-11-15T01:50:01.438Z,94.40
2017-11-15T01:52:30.707Z,94.80
2017-11-15T01:55:00.087Z,94.70
2017-11-15T01:57:29.495Z,94.70
2017-11-15T01:59:59.250Z,94.50
2017-11-15T02:02:28.510Z,94.70
2017-11-15T02:04:57.759Z,94.40
2017-11-15T02:07:27.015Z,94.40
2017-11-15T02:09:57.094Z,94.40
2017-11-15T02:12:27.084Z,94.40
2017-11-15T02:14:56.373Z,94.50
2017-11-15T02:17:26.508Z,94.90
2017-11-15T02:19:55.745Z,94.90
2017-11-15T02:22:25.083Z,94.90
2017-11-15T02:24:55.112Z,94.90
2017-11-15T02:27:24.359Z,94.80
2017-11-15T02:29:53.628Z,94.90
2017-11-15T02:32:22.879Z,95.20
2017-11-15T02:34:52.296Z,95.30
2017-11-15T02:37:21.545Z,95.60
2017-11-15T02:39:51.003Z,95.70
2017-11-15T02:42:21.088Z,96.20
2017-11-15T02:44:50.343Z,96.10
2017-11-15T02:47:19.736Z,96.10
2017-11-15T02:49:49.750Z,96.90
2017-11-15T02:52:19.155Z,96.90
2017-11-15T02:54:48.416Z,97.00
2017-11-15T02:57:17.663Z,97.10
2017-11-15T02:59:47.711Z,96.80
2017-11-15T03:02:16.986Z,96.80
2017-11-15T03:04:46.239Z,96.70
2017-11-15T03:07:15.542Z,96.80
2017-11-15T03:09:44.997Z,96.80
2017-11-15T03:12:15.000Z,96.70
2017-11-15T03:14:44.409Z,96.70
2017-11-15T03:17:13.721Z,96.70
2017-11-15T03:19:43.744Z,96.80
2017-11-15T03:22:13.183Z,96.70
2017-11-15T03:24:42.452Z,96.70
2017-11-15T03:27:12.470Z,96.90
2017-11-15T03:29:41.714Z,96.90
2017-11-15T03:32:11.184Z,96.60
2017-11-15T03:34:40.587Z,96.70
2017-11-15T03:37:09.967Z,96.80
2017-11-15T03:39:39.210Z,96.80
2017-11-15T03:42:08.474Z,96.60
2017-11-15T03:44:37.836Z,96.90
2017-11-15T03:47:07.089Z,97.00
2017-11-15T03:49:36.361Z,97.00
2017-11-15T03:52:05.618Z,96.90
2017-11-15T03:54:34.913Z,96.80
2017-11-15T03:57:04.184Z,96.60
2017-11-15T03:59:34.207Z,96.00
2017-11-15T04:02:03.479Z,96.00
2017-11-15T04:04:33.500Z,96.20
2017-11-15T04:07:02.769Z,95.90
2017-11-15T04:09:32.006Z,95.90
2017-11-15T04:12:01.999Z,96.10
2017-11-15T04:14:31.239Z,96.40
2017-11-15T04:17:00.570Z,96.80
2017-11-15T04:19:29.939Z,97.10
2017-11-15T04:21:59.694Z,97.20
2017-11-15T04:24:28.985Z,97.50
2017-11-15T04:26:58.236Z,97.40
2017-11-15T04:29:27.484Z,97.40
2017-11-15T04:31:56.721Z,97.70
2017-11-15T04:34:25.985Z,97.50
2017-11-15T04:36:55.299Z,97.60
2017-11-15T04:39:24.535Z,97.70
2017-11-15T04:41:53.792Z,97.60
2017-11-15T04:44:23.040Z,97.50
2017-11-15T04:46:52.277Z,97.60
2017-11-15T04:49:21.562Z,97.50
2017-11-15T04:51:51.587Z,97.30
2017-11-15T04:54:20.912Z,97.30
2017-11-15T04:56:50.289Z,97.20
2017-11-15T04:59:20.311Z,97.30
2017-11-15T05:01:49.703Z,97.30
2017-11-15T05:04:19.842Z,97.50
2017-11-15T05:06:49.843Z,97.20
2017-11-15T05:09:19.347Z,97.20
2017-11-15T05:11:48.627Z,97.30
2017-11-15T05:14:18.048Z,97.40
2017-11-15T05:16:47.350Z,97.50
2017-11-15T05:19:16.650Z,97.40
2017-11-15T05:21:46.688Z,97.00
2017-11-15T05:24:16.128Z,97.00
2017-11-15T05:26:45.423Z,96.70
2017-11-15T05:29:14.674Z,96.70
2017-11-15T05:31:43.948Z,96.40
2017-11-15T05:34:13.201Z,96.60
2017-11-15T05:36:43.294Z,96.90
2017-11-15T05:39:12.559Z,96.90
2017-11-15T05:41:41.811Z,97.00
2017-11-15T05:44:11.122Z,96.80
2017-11-15T05:46:40.495Z,96.80
2017-11-15T05:49:09.737Z,96.50
2017-11-15T05:51:39.314Z,96.70
2017-11-15T05:54:09.350Z,96.50
2017-11-15T05:56:40.363Z,96.70
2017-11-15T05:59:11.141Z,96.80
2017-11-15T06:01:40.518Z,96.80
2017-11-15T06:04:09.817Z,97.00
2017-11-15T06:06:39.324Z,97.00
2017-11-15T06:09:08.748Z,96.80
2017-11-15T06:11:37.983Z,96.90
2017-11-15T06:14:07.568Z,97.00
2017-11-15T06:16:36.967Z,96.80
2017-11-15T06:19:06.468Z,96.70
2017-11-15T06:21:36.619Z,96.40
2017-11-15T06:24:05.941Z,96.40
2017-11-15T06:26:35.160Z,96.60
2017-11-15T06:29:04.671Z,96.60
2017-11-15T06:31:33.964Z,96.80
2017-11-15T06:34:04.679Z,97.10
2017-11-15T06:36:34.090Z,97.00
2017-11-15T06:39:03.358Z,97.10
2017-11-15T06:41:32.716Z,97.10
2017-11-15T06:44:01.958Z,97.20
2017-11-15T06:46:31.360Z,97.00
2017-11-15T06:49:01.388Z,97.30
2017-11-15T06:51:30.734Z,97.00
2017-11-15T06:54:00.079Z,97.30
2017-11-15T06:56:29.382Z,97.10
2017-11-15T06:58:59.406Z,97.40
2017-11-15T07:01:28.803Z,97.30
2017-11-15T07:03:58.077Z,97.50
2017-11-15T07:06:27.346Z,97.60
2017-11-15T07:08:56.611Z,97.50
2017-11-15T07:11:26.644Z,96.90
2017-11-15T07:13:55.894Z,96.80
2017-11-15T07:16:25.320Z,96.50
2017-11-15T07:18:54.639Z,96.10
2017-11-15T07:21:24.751Z,96.30
2017-11-15T07:23:54.874Z,96.30
2017-11-15T07:26:24.911Z,95.90
2017-11-15T07:28:54.168Z,95.90
2017-11-15T07:31:23.551Z,95.70
2017-11-15T07:33:53.080Z,95.40
2017-11-15T07:36:22.363Z,95.50
2017-11-15T07:38:51.683Z,95.50
2017-11-15T07:41:21.128Z,95.70
2017-11-15T07:43:51.882Z,95.60
2017-11-15T07:46:21.292Z,95.50
2017-11-15T07:48:50.533Z,95.50
2017-11-15T07:51:19.803Z,95.50
2017-11-15T07:53:49.144Z,95.70
2017-11-15T07:56:18.420Z,95.80
2017-11-15T07:58:47.756Z,95.60
2017-11-15T08:01:17.019Z,95.50
2017-11-15T08:03:46.463Z,95.60
2017-11-15T08:06:16.310Z,95.60
2017-11-15T08:08:45.572Z,95.50
2017-11-15T08:11:15.397Z,94.90
2017-11-15T08:13:44.631Z,94.50
2017-11-15T08:16:13.938Z,94.40
2017-11-15T08:18:43.518Z,94.40
2017-11-15T08:21:12.775Z,94.20
2017-11-15T08:23:42.027Z,94.40
2017-11-15T08:26:11.324Z,94.70
2017-11-15T08:28:40.570Z,95.00
2017-11-15T08:31:09.896Z,94.30
2017-11-15T08:33:39.145Z,94.20
2017-11-15T08:36:08.449Z,94.20
2017-11-15T08:38:37.707Z,94.20
2017-11-15T08:41:07.708Z,94.10
2017-11-15T08:43:36.959Z,94.00
2017-11-15T08:46:06.223Z,94.20
2017-11-15T08:48:35.544Z,94.20
2017-11-15T08:51:04.783Z,93.80
2017-11-15T08:53:34.042Z,93.40
2017-11-15T08:56:04.075Z,92.50
2017-11-15T08:58:33.451Z,92.40
2017-11-15T09:01:03.501Z,91.10
2017-11-15T09:03:32.743Z,91.10
2017-11-15T09:06:02.158Z,90.60
2017-11-15T09:08:31.407Z,89.90
2017-11-15T09:11:00.649Z,88.70
2017-11-15T09:13:29.939Z,86.20
2017-11-15T09:15:59.189Z,85.50
2017-11-15T09:18:29.503Z,85.10
2017-11-15T09:20:58.776Z,85.10
2017-11-15T09:23:28.315Z,84.10
2017-11-15T09:25:58.323Z,83.30
2017-11-15T09:28:30.584Z,83.30
2017-11-15T09:30:59.902Z,83.40
2017-11-15T09:33:30.125Z,82.40
2017-11-15T09:35:59.366Z,82.30
2017-11-15T09:38:28.619Z,84.40
2017-11-15T09:40:57.899Z,86.30
2017-11-15T09:43:27.168Z,88.00
2017-11-15T09:45:56.428Z,89.80
2017-11-15T09:48:25.854Z,90.30
2017-11-15T09:50:55.136Z,90.20
2017-11-15T09:53:24.512Z,91.00
2017-11-15T09:55:53.758Z,91.10
2017-11-15T09:58:23.048Z,91.40
2017-11-15T10:00:53.047Z,91.30
2017-11-15T10:03:22.338Z,91.30
2017-11-15T10:05:51.748Z,90.40
2017-11-15T10:08:21.699Z,90.00
2017-11-15T10:10:50.956Z,90.10
2017-11-15T10:13:20.195Z,89.90
2017-11-15T10:15:49.448Z,90.20
2017-11-15T10:18:18.749Z,90.50
2017-11-15T10:20:48.087Z,90.10
2017-11-15T10:23:17.370Z,87.80
2017-11-15T10:25:46.620Z,86.70
2017-11-15T10:28:15.888Z,84.10
2017-11-15T10:30:45.931Z,80.20
2017-11-15T10:33:15.248Z,80.20
2017-11-15T10:35:44.594Z,80.60
2017-11-15T10:38:14.690Z,78.40
2017-11-15T10:40:43.970Z,78.40
2017-11-15T10:43:13.254Z,77.40
2017-11-15T10:45:42.643Z,77.00
2017-11-15T10:48:11.965Z,73.90
2017-11-15T10:50:41.257Z,69.40
2017-11-15T10:53:10.727Z,65.90
2017-11-15T10:55:40.772Z,53.70
2017-11-15T10:58:10.184Z,53.70
2017-11-15T11:00:40.382Z,50.50
2017-11-15T11:03:09.784Z,50.50
2017-11-15T11:05:39.826Z,46.70
2017-11-15T11:08:09.130Z,46.60
2017-11-15T11:10:38.379Z,47.20
2017-11-15T11:13:07.832Z,47.60
2017-11-15T11:15:37.102Z,47.60
2017-11-15T11:18:07.147Z,46.50
2017-11-15T11:20:36.501Z,46.40
2017-11-15T11:23:05.734Z,47.00
2017-11-15T11:25:35.171Z,48.20
2017-11-15T11:28:04.448Z,47.50
2017-11-15T11:30:34.765Z,47.20
2017-11-15T11:33:04.171Z,47.60
2017-11-15T11:35:33.459Z,48.50
2017-11-15T11:38:02.731Z,50.00
2017-11-15T11:40:32.170Z,51.20
2017-11-15T11:43:02.224Z,53.50
2017-11-15T11:45:31.788Z,53.50
2017-11-15T11:48:01.849Z,55.40
2017-11-15T11:50:31.122Z,55.40
2017-11-15T11:53:00.516Z,55.50
2017-11-15T11:55:30.839Z,55.70
2017-11-15T11:58:00.894Z,55.70
2017-11-15T12:00:30.356Z,55.50
2017-11-15T12:02:59.615Z,56.50
2017-11-15T12:05:28.899Z,57.40
2017-11-15T12:07:58.174Z,55.40
2017-11-15T12:10:28.232Z,54.70
2017-11-15T12:12:57.490Z,54.70
2017-11-15T12:15:26.918Z,53.70
2017-11-15T12:17:56.194Z,54.30
2017-11-15T12:20:25.613Z,55.10
2017-11-15T12:22:54.910Z,54.90
2017-11-15T12:25:24.434Z,54.70
2017-11-15T12:27:53.686Z,55.10
2017-11-15T12:30:23.204Z,55.20
2017-11-15T12:32:52.622Z,55.10
2017-11-15T12:35:22.660Z,55.10
2017-11-15T12:37:51.924Z,55.00
2017-11-15T12:40:22.796Z,56.50
2017-11-15T12:42:52.813Z,59.30
2017-11-15T12:45:22.077Z,59.30
2017-11-15T12:47:51.335Z,61.60
2017-11-15T12:50:20.812Z,62.50
2017-11-15T12:52:50.849Z,66.70
2017-11-15T12:55:20.231Z,66.70
2017-11-15T12:57:50.261Z,69.80
2017-11-15T13:00:19.748Z,69.70
2017-11-15T13:02:49.039Z,71.20
2017-11-15T13:05:18.295Z,71.90
2017-11-15T13:07:48.107Z,73.30
2017-11-15T13:10:17.386Z,74.70
2017-11-15T13:12:46.642Z,76.20
2017-11-15T13:15:16.095Z,76.00
2017-11-15T13:17:46.096Z,78.20
2017-11-15T13:20:15.373Z,78.10
2017-11-15T13:22:44.615Z,79.00
2017-11-15T13:25:14.100Z,79.00
2017-11-15T13:27:44.148Z,80.00
2017-11-15T13:30:13.535Z,79.90
2017-11-15T13:32:42.826Z,80.10
2017-11-15T13:35:12.303Z,80.50
2017-11-15T13:37:42.201Z,80.90
2017-11-15T13:40:11.492Z,81.80
2017-11-15T13:42:40.747Z,79.40
2017-11-15T13:45:10.148Z,78.90
2017-11-15T13:47:39.549Z,79.20
2017-11-15T13:50:08.830Z,80.60
2017-11-15T13:52:38.283Z,78.60
2017-11-15T13:55:07.563Z,79.00
2017-11-15T13:57:37.675Z,80.10
2017-11-15T14:00:07.799Z,79.50
2017-11-15T14:02:37.878Z,79.70
2017-11-15T14:05:07.116Z,79.60
2017-11-15T14:07:36.407Z,79.40
2017-11-15T14:10:05.662Z,80.10
2017-11-15T14:12:34.931Z,79.60
2017-11-15T14:15:04.209Z,80.90
2017-11-15T14:17:33.580Z,81.70
2017-11-15T14:20:02.829Z,82.20
2017-11-15T14:22:32.858Z,83.50
2017-11-15T14:25:02.317Z,83.40
2017-11-15T14:27:31.644Z,84.20
2017-11-15T14:30:01.058Z,85.00
2017-11-15T14:32:30.547Z,84.30
2017-11-15T14:34:59.803Z,84.30
2017-11-15T14:37:29.087Z,84.40
2017-11-15T14:39:58.357Z,84.20
2017-11-15T14:42:27.996Z,84.30
2017-11-15T14:44:57.281Z,85.00
2017-11-15T14:47:27.393Z,87.40
2017-11-15T14:49:57.523Z,89.40
2017-11-15T14:52:26.800Z,89.40
2017-11-15T14:54:56.078Z,89.40
2017-11-15T14:57:25.380Z,90.00
2017-11-15T14:59:54.823Z,90.00
2017-11-15T15:02:24.070Z,90.50
2017-11-15T15:04:53.352Z,90.90
2017-11-15T15:07:22.639Z,91.20
2017-11-15T15:09:52.672Z,91.20
2017-11-15T15:12:21.924Z,91.20
2017-11-15T15:14:51.225Z,91.40
2017-11-15T15:17:20.469Z,91.90
2017-11-15T15:19:49.723Z,92.00
2017-11-15T15:22:19.056Z,92.50
2017-11-15T15:24:49.088Z,93.00
2017-11-15T15:27:18.617Z,93.00
2017-11-15T15:29:48.759Z,93.40
2017-11-15T15:32:18.018Z,93.80
2017-11-15T15:34:47.375Z,94.20
2017-11-15T15:37:16.735Z,94.40
2017-11-15T15:39:45.998Z,94.70
2017-11-15T15:42:15.323Z,95.10
2017-11-15T15:44:44.748Z,95.20
2017-11-15T15:47:15.041Z,95.60
2017-11-15T15:49:44.373Z,95.80
2017-11-15T15:52:13.756Z,96.00
2017-11-15T15:54:43.888Z,96.40
2017-11-15T15:57:13.208Z,96.40
2017-11-15T15:59:42.555Z,96.70
2017-11-15T16:02:13.481Z,96.90
2017-11-15T16:04:42.904Z,96.90
2017-11-15T16:07:13.019Z,97.30
2017-11-15T16:09:42.281Z,97.20
2017-11-15T16:12:11.540Z,97.30
2017-11-15T16:14:40.887Z,97.50
2017-11-15T16:17:10.240Z,97.70
2017-11-15T16:19:39.629Z,97.90
2017-11-15T16:22:09.264Z,97.90
2017-11-15T16:24:40.182Z,97.70
2017-11-15T16:27:09.533Z,97.70
2017-11-15T16:29:38.918Z,97.80
2017-11-15T16:32:08.188Z,97.80
2017-11-15T16:34:37.476Z,97.80
2017-11-15T16:37:06.910Z,97.80
2017-11-15T16:39:36.200Z,98.00
2017-11-15T16:42:06.613Z,98.00
2017-11-15T16:44:35.967Z,98.00
2017-11-15T16:47:05.220Z,98.10
2017-11-15T16:49:34.608Z,98.30
2017-11-15T16:52:04.225Z,98.30
2017-11-15T16:54:33.665Z,98.10
2017-11-15T16:57:03.135Z,98.10
2017-11-15T16:59:32.480Z,98.30
2017-11-15T17:02:01.859Z,98.30
2017-11-15T17:04:31.170Z,98.40
2017-11-15T17:07:01.657Z,98.50
2017-11-15T17:09:30.931Z,98.40
2017-11-15T17:12:00.260Z,98.20
2017-11-15T17:14:29.652Z,98.30
2017-11-15T17:16:58.948Z,98.50
2017-11-15T17:19:28.301Z,98.40
2017-11-15T17:21:57.657Z,98.40
2017-11-15T17:24:27.048Z,98.60
2017-11-15T17:26:56.541Z,98.40
2017-11-15T17:29:26.559Z,98.30
2017-11-15T17:31:55.935Z,98.30
2017-11-15T17:34:25.271Z,98.20
2017-11-15T17:36:54.611Z,98.30
2017-11-15T17:39:23.975Z,98.40
2017-11-15T17:41:53.278Z,98.60
2017-11-15T17:44:22.547Z,98.70
2017-11-15T17:46:51.823Z,98.90
2017-11-15T17:49:21.260Z,98.70
2017-11-15T17:51:50.666Z,98.80
2017-11-15T17:54:19.969Z,99.00
2017-11-15T17:56:49.228Z,99.10
2017-11-15T17:59:18.497Z,99.00
2017-11-15T18:01:47.786Z,98.80
2017-11-15T18:04:17.200Z,98.90
2017-11-15T18:06:46.607Z,98.90
2017-11-15T18:09:15.849Z,99.10
2017-11-15T18:11:45.210Z,99.10
2017-11-15T18:14:14.667Z,99.10
2017-11-15T18:16:43.915Z,99.10
2017-11-15T18:19:13.298Z,99.10
2017-11-15T18:21:44.046Z,99.10
2017-11-15T18:24:14.081Z,99.10
2017-11-15T18:26:43.375Z,99.40
2017-11-15T18:29:12.772Z,99.60
2017-11-15T18:31:42.790Z,99.70
2017-11-15T18:34:12.187Z,99.70
2017-11-15T18:36:42.218Z,99.70
2017-11-15T18:39:11.578Z,99.70
2017-11-15T18:41:40.887Z,99.70
2017-11-15T18:44:10.256Z,99.70
2017-11-15T18:46:39.657Z,99.90
2017-11-15T18:49:08.875Z,99.80
2017-11-15T18:51:38.137Z,99.90
2017-11-15T18:54:07.539Z,99.90
2017-11-15T18:56:37.663Z,99.90
2017-11-15T18:59:07.047Z,99.90
2017-11-15T19:01:38.306Z,99.90
2017-11-15T19:04:07.781Z,99.90
2017-11-15T19:06:37.812Z,99.90
2017-11-15T19:09:07.086Z,99.90
2017-11-15T19:11:36.524Z,99.90
2017-11-15T19:14:06.534Z,99.90
2017-11-15T19:16:35.800Z,99.90
2017-11-15T19:19:05.323Z,99.90
2017-11-15T19:21:34.602Z,99.90
2017-11-15T19:24:03.937Z,99.90
2017-11-15T19:26:33.174Z,99.90
2017-11-15T19:29:02.449Z,99.90
2017-11-15T19:31:31.705Z,99.90
2017-11-15T19:34:00.984Z,99.90
2017-11-15T19:36:30.353Z,99.90
2017-11-15T19:38:59.678Z,99.90
2017-11-15T19:41:29.088Z,99.90
2017-11-15T19:43:59.308Z,99.90
2017-11-15T19:46:28.568Z,99.90
2017-11-15T19:48:57.812Z,99.90
2017-11-15T19:51:27.871Z,99.90
2017-11-15T19:53:57.196Z,99.90
2017-11-15T19:56:27.279Z,99.90
2017-11-15T19:58:56.623Z,99.90
2017-11-15T20:01:25.953Z,99.90
2017-11-15T20:03:55.260Z,99.90
2017-11-15T20:06:24.607Z,99.90
2017-11-15T20:08:54.383Z,99.90
2017-11-15T20:11:23.752Z,99.90
2017-11-15T20:13:53.039Z,99.90
2017-11-15T20:16:22.419Z,99.90
2017-11-15T20:18:51.799Z,99.90
2017-11-15T20:21:21.276Z,99.90
2017-11-15T20:23:50.523Z,99.90
2017-11-15T20:26:19.871Z,99.90
2017-11-15T20:28:49.453Z,99.90
2017-11-15T20:31:18.711Z,99.90
2017-11-15T20:33:48.063Z,99.90
2017-11-15T20:36:18.215Z,99.90
2017-11-15T20:38:47.743Z,99.90
2017-11-15T20:41:17.050Z,99.90
2017-11-15T20:43:47.071Z,99.90
2017-11-15T20:46:16.640Z,99.90
2017-11-15T20:48:46.635Z,99.90
2017-11-15T20:51:15.919Z,99.90
2017-11-15T20:53:45.195Z,99.70
2017-11-15T20:56:14.475Z,99.90
2017-11-15T20:58:43.718Z,99.80
2017-11-15T21:01:13.071Z,99.90
2017-11-15T21:03:43.210Z,99.90
2017-11-15T21:06:12.423Z,99.80
2017-11-15T21:08:41.756Z,99.90
2017-11-15T21:11:11.940Z,99.90
2017-11-15T21:13:41.248Z,99.90
2017-11-15T21:16:11.475Z,99.70
2017-11-15T21:18:40.861Z,99.60
2017-11-15T21:21:10.891Z,99.70
2017-11-15T21:23:40.194Z,99.70
2017-11-15T21:26:09.454Z,99.50
2017-11-15T21:28:38.894Z,99.60
2017-11-15T21:31:08.292Z,99.50
2017-11-15T21:33:37.599Z,99.40
2017-11-15T21:36:06.843Z,99.50
2017-11-15T21:38:36.230Z,99.30
2017-11-15T21:41:05.675Z,99.30
2017-11-15T21:43:34.911Z,99.40
2017-11-15T21:46:04.433Z,99.30
2017-11-15T21:48:33.677Z,99.30
2017-11-15T21:51:03.841Z,99.30
2017-11-15T21:53:33.080Z,99.40
2017-11-15T21:56:02.352Z,99.40
2017-11-15T21:58:33.088Z,99.40
2017-11-15T22:01:03.100Z,99.30
2017-11-15T22:03:32.601Z,99.30
2017-11-15T22:06:02.008Z,99.20
2017-11-15T22:08:32.039Z,99.40
2017-11-15T22:11:01.395Z,99.30
2017-11-15T22:13:30.759Z,99.40
2017-11-15T22:16:00.507Z,99.40
2017-11-15T22:18:29.927Z,99.30
2017-11-15T22:20:59.222Z,99.30
2017-11-15T22:23:28.624Z,99.30
2017-11-15T22:25:57.895Z,99.40
2017-11-15T22:28:27.424Z,99.20
2017-11-15T22:30:56.782Z,99.10
2017-11-15T22:33:26.049Z,99.10
2017-11-15T22:35:55.557Z,99.10
2017-11-15T22:38:24.808Z,99.10
2017-11-15T22:40:54.195Z,99.10
2017-11-15T22:43:23.679Z,99.10
2017-11-15T22:45:52.959Z,98.80
2017-11-15T22:48:22.251Z,99.00
2017-11-15T22:50:52.419Z,99.10
2017-11-15T22:53:21.804Z,99.20
2017-11-15T22:55:51.912Z,99.20
2017-11-15T22:58:21.459Z,99.20
2017-11-15T23:00:50.854Z,99.30
2017-11-15T23:03:20.105Z,99.20
2017-11-15T23:05:49.542Z,99.30
2017-11-15T23:08:19.580Z,99.20
2017-11-15T23:10:48.834Z,99.20
2017-11-15T23:13:18.283Z,99.10
2017-11-15T23:15:47.630Z,98.90
2017-11-15T23:18:16.987Z,99.00
2017-11-15T23:20:46.326Z,99.00
2017-11-15T23:23:15.689Z,99.00
2017-11-15T23:25:44.949Z,98.90
2017-11-15T23:28:14.231Z,98.80
2017-11-15T23:30:43.548Z,98.90
2017-11-15T23:33:13.567Z,99.10
2017-11-15T23:35:43.591Z,98.80
2017-11-15T23:38:13.714Z,98.90
2017-11-15T23:40:43.740Z,99.10
2017-11-15T23:43:12.975Z,98.80
2017-11-15T23:45:43.036Z,98.60
2017-11-15T23:48:12.639Z,98.50
2017-11-15T23:50:41.935Z,98.10
2017-11-15T23:53:11.283Z,98.50
2017-11-15T23:55:40.528Z,98.40
2017-11-15T23:58:09.987Z,98.40
